sensor_id;sensor_type;location;lat;lon;timestamp;P1;durP1;ratioP1;P2;durP2;ratioP2
25123;SDS011;13104;51.030;4.686;2022-09-20T00:01:18;6.38;;;1.92;;
25123;SDS011;13104;51.030;4.686;2022-09-20T00:03:50;5.13;;;1.60;;
25123;SDS011;13104;51.030;4.686;2022-09-20T00:06:19;7.15;;;2.00;;
25123;SDS011;13104;51.030;4.686;2022-09-20T00:08:45;10.82;;;1.95;;
25123;SDS011;13104;51.030;4.686;2022-09-20T00:11:13;8.52;;;1.70;;
25123;SDS011;13104;51.030;4.686;2022-09-20T00:13:40;8.32;;;2.10;;
25123;SDS011;13104;51.030;4.686;2022-09-20T00:16:08;5.55;;;1.88;;
25123;SDS011;13104;51.030;4.686;2022-09-20T00:18:34;9.32;;;1.80;;
25123;SDS011;13104;51.030;4.686;2022-09-20T00:21:00;7.22;;;1.77;;
25123;SDS011;13104;51.030;4.686;2022-09-20T00:23:26;8.10;;;1.85;;
25123;SDS011;13104;51.030;4.686;2022-09-20T00:25:55;12.52;;;2.15;;
25123;SDS011;13104;51.030;4.686;2022-09-20T00:28:21;6.75;;;1.70;;
25123;SDS011;13104;51.030;4.686;2022-09-20T00:30:47;8.15;;;1.67;;
25123;SDS011;13104;51.030;4.686;2022-09-20T00:33:14;9.00;;;1.85;;
25123;SDS011;13104;51.030;4.686;2022-09-20T00:35:43;7.22;;;1.90;;
25123;SDS011;13104;51.030;4.686;2022-09-20T00:38:09;8.70;;;2.22;;
25123;SDS011;13104;51.030;4.686;2022-09-20T00:40:37;7.13;;;1.70;;
25123;SDS011;13104;51.030;4.686;2022-09-20T00:43:04;7.72;;;1.98;;
25123;SDS011;13104;51.030;4.686;2022-09-20T00:45:30;10.32;;;2.00;;
25123;SDS011;13104;51.030;4.686;2022-09-20T00:48:08;6.72;;;2.17;;
25123;SDS011;13104;51.030;4.686;2022-09-20T00:53:07;5.82;;;1.70;;
25123;SDS011;13104;51.030;4.686;2022-09-20T00:55:35;9.45;;;1.98;;
25123;SDS011;13104;51.030;4.686;2022-09-20T00:58:03;8.45;;;2.10;;
25123;SDS011;13104;51.030;4.686;2022-09-20T01:00:30;6.18;;;1.80;;
25123;SDS011;13104;51.030;4.686;2022-09-20T01:02:57;9.25;;;1.88;;
25123;SDS011;13104;51.030;4.686;2022-09-20T01:05:25;5.88;;;1.92;;
25123;SDS011;13104;51.030;4.686;2022-09-20T01:07:52;8.27;;;2.03;;
25123;SDS011;13104;51.030;4.686;2022-09-20T01:10:19;12.88;;;2.00;;
25123;SDS011;13104;51.030;4.686;2022-09-20T01:12:45;8.50;;;2.03;;
25123;SDS011;13104;51.030;4.686;2022-09-20T01:15:12;5.18;;;2.15;;
25123;SDS011;13104;51.030;4.686;2022-09-20T01:17:41;9.23;;;1.88;;
25123;SDS011;13104;51.030;4.686;2022-09-20T01:20:19;9.23;;;2.08;;
25123;SDS011;13104;51.030;4.686;2022-09-20T01:22:57;7.97;;;1.90;;
25123;SDS011;13104;51.030;4.686;2022-09-20T01:25:40;7.55;;;1.90;;
25123;SDS011;13104;51.030;4.686;2022-09-20T01:28:11;8.50;;;2.00;;
25123;SDS011;13104;51.030;4.686;2022-09-20T01:30:39;9.27;;;1.60;;
25123;SDS011;13104;51.030;4.686;2022-09-20T01:33:15;4.93;;;1.67;;
25123;SDS011;13104;51.030;4.686;2022-09-20T01:35:43;11.85;;;1.95;;
25123;SDS011;13104;51.030;4.686;2022-09-20T01:38:32;8.55;;;2.20;;
25123;SDS011;13104;51.030;4.686;2022-09-20T01:46:26;9.40;;;2.42;;
25123;SDS011;13104;51.030;4.686;2022-09-20T01:49:02;6.95;;;1.80;;
25123;SDS011;13104;51.030;4.686;2022-09-20T01:57:24;5.45;;;1.63;;
25123;SDS011;13104;51.030;4.686;2022-09-20T02:08:12;6.45;;;2.05;;
25123;SDS011;13104;51.030;4.686;2022-09-20T02:26:02;8.55;;;2.38;;
25123;SDS011;13104;51.030;4.686;2022-09-20T02:28:36;12.05;;;2.83;;
25123;SDS011;13104;51.030;4.686;2022-09-20T02:31:14;12.02;;;3.17;;
25123;SDS011;13104;51.030;4.686;2022-09-20T02:39:06;15.68;;;3.10;;
25123;SDS011;13104;51.030;4.686;2022-09-20T02:41:40;10.15;;;3.10;;
25123;SDS011;13104;51.030;4.686;2022-09-20T02:51:46;10.07;;;2.97;;
25123;SDS011;13104;51.030;4.686;2022-09-20T02:56:53;9.65;;;3.15;;
25123;SDS011;13104;51.030;4.686;2022-09-20T02:59:40;9.23;;;3.05;;
25123;SDS011;13104;51.030;4.686;2022-09-20T03:02:21;10.80;;;3.40;;
25123;SDS011;13104;51.030;4.686;2022-09-20T03:13:16;9.45;;;3.10;;
25123;SDS011;13104;51.030;4.686;2022-09-20T03:18:20;10.10;;;3.67;;
25123;SDS011;13104;51.030;4.686;2022-09-20T03:21:14;9.20;;;3.45;;
25123;SDS011;13104;51.030;4.686;2022-09-20T03:23:59;6.00;;;3.27;;
25123;SDS011;13104;51.030;4.686;2022-09-20T03:47:02;10.57;;;3.20;;
25123;SDS011;13104;51.030;4.686;2022-09-20T03:52:32;11.30;;;3.67;;
25123;SDS011;13104;51.030;4.686;2022-09-20T04:00:25;9.50;;;3.53;;
25123;SDS011;13104;51.030;4.686;2022-09-20T04:05:28;10.95;;;3.92;;
25123;SDS011;13104;51.030;4.686;2022-09-20T04:13:28;8.63;;;3.53;;
25123;SDS011;13104;51.030;4.686;2022-09-20T04:26:05;13.52;;;5.05;;
25123;SDS011;13104;51.030;4.686;2022-09-20T04:31:03;15.18;;;6.15;;
25123;SDS011;13104;51.030;4.686;2022-09-20T04:33:32;15.00;;;6.43;;
25123;SDS011;13104;51.030;4.686;2022-09-20T05:00:04;17.83;;;7.93;;
25123;SDS011;13104;51.030;4.686;2022-09-20T05:10:19;13.95;;;8.50;;
25123;SDS011;13104;51.030;4.686;2022-09-20T05:23:54;17.40;;;11.68;;
25123;SDS011;13104;51.030;4.686;2022-09-20T05:26:01;15.38;;;10.32;;
25123;SDS011;13104;51.030;4.686;2022-09-20T05:33:42;21.55;;;10.95;;
25123;SDS011;13104;51.030;4.686;2022-09-20T05:38:44;18.85;;;10.90;;
25123;SDS011;13104;51.030;4.686;2022-09-20T05:41:35;21.75;;;10.85;;
25123;SDS011;13104;51.030;4.686;2022-09-20T05:46:32;17.45;;;10.65;;
25123;SDS011;13104;51.030;4.686;2022-09-20T05:57:18;16.67;;;9.20;;
25123;SDS011;13104;51.030;4.686;2022-09-20T05:59:57;20.30;;;9.73;;
25123;SDS011;13104;51.030;4.686;2022-09-20T06:02:33;18.27;;;9.20;;
25123;SDS011;13104;51.030;4.686;2022-09-20T06:05:14;16.25;;;9.35;;
25123;SDS011;13104;51.030;4.686;2022-09-20T06:08:03;15.85;;;9.23;;
25123;SDS011;13104;51.030;4.686;2022-09-20T06:23:16;13.75;;;8.95;;
25123;SDS011;13104;51.030;4.686;2022-09-20T06:25:54;15.15;;;8.70;;
25123;SDS011;13104;51.030;4.686;2022-09-20T06:28:23;17.77;;;9.98;;
25123;SDS011;13104;51.030;4.686;2022-09-20T06:30:52;14.65;;;8.85;;
25123;SDS011;13104;51.030;4.686;2022-09-20T06:33:25;13.00;;;8.98;;
25123;SDS011;13104;51.030;4.686;2022-09-20T06:41:25;17.52;;;8.98;;
25123;SDS011;13104;51.030;4.686;2022-09-20T06:43:58;21.30;;;9.20;;
25123;SDS011;13104;51.030;4.686;2022-09-20T06:46:25;21.95;;;10.18;;
25123;SDS011;13104;51.030;4.686;2022-09-20T06:48:52;18.17;;;8.82;;
25123;SDS011;13104;51.030;4.686;2022-09-20T06:51:19;22.10;;;8.73;;
25123;SDS011;13104;51.030;4.686;2022-09-20T06:53:46;16.40;;;9.43;;
25123;SDS011;13104;51.030;4.686;2022-09-20T06:56:17;16.42;;;8.80;;
25123;SDS011;13104;51.030;4.686;2022-09-20T06:58:44;13.05;;;8.27;;
25123;SDS011;13104;51.030;4.686;2022-09-20T07:01:10;18.08;;;9.05;;
25123;SDS011;13104;51.030;4.686;2022-09-20T07:03:38;14.93;;;7.75;;
25123;SDS011;13104;51.030;4.686;2022-09-20T07:06:04;19.30;;;8.05;;
25123;SDS011;13104;51.030;4.686;2022-09-20T07:08:30;16.70;;;7.60;;
25123;SDS011;13104;51.030;4.686;2022-09-20T07:11:01;21.27;;;7.55;;
25123;SDS011;13104;51.030;4.686;2022-09-20T07:13:28;14.98;;;8.00;;
25123;SDS011;13104;51.030;4.686;2022-09-20T07:16:04;15.57;;;7.45;;
25123;SDS011;13104;51.030;4.686;2022-09-20T07:18:32;19.55;;;7.78;;
25123;SDS011;13104;51.030;4.686;2022-09-20T07:21:01;13.57;;;7.57;;
25123;SDS011;13104;51.030;4.686;2022-09-20T07:23:29;17.45;;;7.57;;
25123;SDS011;13104;51.030;4.686;2022-09-20T07:25:55;15.55;;;7.63;;
25123;SDS011;13104;51.030;4.686;2022-09-20T07:28:27;11.60;;;7.30;;
25123;SDS011;13104;51.030;4.686;2022-09-20T07:30:54;17.15;;;7.25;;
25123;SDS011;13104;51.030;4.686;2022-09-20T07:33:20;11.43;;;7.38;;
25123;SDS011;13104;51.030;4.686;2022-09-20T07:35:47;13.88;;;7.60;;
25123;SDS011;13104;51.030;4.686;2022-09-20T07:38:13;18.42;;;6.65;;
25123;SDS011;13104;51.030;4.686;2022-09-20T07:40:41;16.40;;;6.90;;
25123;SDS011;13104;51.030;4.686;2022-09-20T07:43:07;17.10;;;7.13;;
25123;SDS011;13104;51.030;4.686;2022-09-20T07:45:34;14.15;;;6.22;;
25123;SDS011;13104;51.030;4.686;2022-09-20T07:48:03;9.55;;;6.78;;
25123;SDS011;13104;51.030;4.686;2022-09-20T07:50:30;17.05;;;7.45;;
25123;SDS011;13104;51.030;4.686;2022-09-20T07:52:57;14.80;;;6.32;;
25123;SDS011;13104;51.030;4.686;2022-09-20T07:55:23;15.57;;;6.93;;
25123;SDS011;13104;51.030;4.686;2022-09-20T07:57:49;16.02;;;6.47;;
25123;SDS011;13104;51.030;4.686;2022-09-20T08:00:15;10.75;;;6.25;;
25123;SDS011;13104;51.030;4.686;2022-09-20T08:02:42;13.10;;;6.63;;
25123;SDS011;13104;51.030;4.686;2022-09-20T08:05:09;15.50;;;6.65;;
25123;SDS011;13104;51.030;4.686;2022-09-20T08:07:35;16.98;;;6.70;;
25123;SDS011;13104;51.030;4.686;2022-09-20T08:10:02;14.10;;;6.57;;
25123;SDS011;13104;51.030;4.686;2022-09-20T08:12:29;13.10;;;6.75;;
25123;SDS011;13104;51.030;4.686;2022-09-20T08:14:56;13.45;;;6.45;;
25123;SDS011;13104;51.030;4.686;2022-09-20T08:17:22;13.05;;;6.28;;
25123;SDS011;13104;51.030;4.686;2022-09-20T08:19:49;13.65;;;6.90;;
25123;SDS011;13104;51.030;4.686;2022-09-20T08:22:17;11.13;;;6.30;;
25123;SDS011;13104;51.030;4.686;2022-09-20T08:24:43;17.23;;;6.35;;
25123;SDS011;13104;51.030;4.686;2022-09-20T08:27:10;9.82;;;5.38;;
25123;SDS011;13104;51.030;4.686;2022-09-20T08:29:37;16.00;;;6.07;;
25123;SDS011;13104;51.030;4.686;2022-09-20T08:32:04;10.57;;;5.50;;
25123;SDS011;13104;51.030;4.686;2022-09-20T08:34:30;14.13;;;5.43;;
25123;SDS011;13104;51.030;4.686;2022-09-20T08:36:56;12.68;;;5.70;;
25123;SDS011;13104;51.030;4.686;2022-09-20T08:39:23;14.95;;;6.13;;
25123;SDS011;13104;51.030;4.686;2022-09-20T08:44:38;17.83;;;5.20;;
25123;SDS011;13104;51.030;4.686;2022-09-20T08:47:08;14.30;;;5.50;;
25123;SDS011;13104;51.030;4.686;2022-09-20T08:49:38;16.20;;;5.90;;
25123;SDS011;13104;51.030;4.686;2022-09-20T08:52:05;18.80;;;5.93;;
25123;SDS011;13104;51.030;4.686;2022-09-20T08:54:31;14.73;;;5.40;;
25123;SDS011;13104;51.030;4.686;2022-09-20T08:57:01;11.57;;;5.72;;
25123;SDS011;13104;51.030;4.686;2022-09-20T08:59:29;15.50;;;5.32;;
25123;SDS011;13104;51.030;4.686;2022-09-20T09:01:55;17.95;;;5.90;;
25123;SDS011;13104;51.030;4.686;2022-09-20T09:04:23;16.00;;;5.30;;
25123;SDS011;13104;51.030;4.686;2022-09-20T09:06:50;12.20;;;5.03;;
25123;SDS011;13104;51.030;4.686;2022-09-20T09:09:18;15.80;;;5.10;;
25123;SDS011;13104;51.030;4.686;2022-09-20T09:11:45;9.45;;;5.07;;
25123;SDS011;13104;51.030;4.686;2022-09-20T09:14:26;16.85;;;4.90;;
25123;SDS011;13104;51.030;4.686;2022-09-20T09:17:13;13.27;;;4.70;;
25123;SDS011;13104;51.030;4.686;2022-09-20T09:22:16;11.95;;;4.70;;
25123;SDS011;13104;51.030;4.686;2022-09-20T09:24:42;17.52;;;5.82;;
25123;SDS011;13104;51.030;4.686;2022-09-20T09:27:13;11.20;;;4.80;;
25123;SDS011;13104;51.030;4.686;2022-09-20T09:29:50;8.70;;;4.82;;
25123;SDS011;13104;51.030;4.686;2022-09-20T09:32:26;10.35;;;4.88;;
25123;SDS011;13104;51.030;4.686;2022-09-20T09:34:53;9.82;;;5.20;;
25123;SDS011;13104;51.030;4.686;2022-09-20T09:37:31;12.27;;;5.18;;
25123;SDS011;13104;51.030;4.686;2022-09-20T09:40:15;14.07;;;4.55;;
25123;SDS011;13104;51.030;4.686;2022-09-20T09:42:52;10.35;;;5.00;;
25123;SDS011;13104;51.030;4.686;2022-09-20T09:45:26;8.73;;;4.82;;
25123;SDS011;13104;51.030;4.686;2022-09-20T09:47:53;14.00;;;5.30;;
25123;SDS011;13104;51.030;4.686;2022-09-20T09:50:24;9.68;;;4.35;;
25123;SDS011;13104;51.030;4.686;2022-09-20T09:52:58;11.18;;;4.38;;
25123;SDS011;13104;51.030;4.686;2022-09-20T09:58:15;13.32;;;4.60;;
25123;SDS011;13104;51.030;4.686;2022-09-20T10:00:48;13.30;;;5.30;;
25123;SDS011;13104;51.030;4.686;2022-09-20T10:03:33;12.85;;;4.65;;
25123;SDS011;13104;51.030;4.686;2022-09-20T10:08:52;10.10;;;4.20;;
25123;SDS011;13104;51.030;4.686;2022-09-20T10:16:27;10.13;;;4.47;;
25123;SDS011;13104;51.030;4.686;2022-09-20T10:21:26;12.30;;;4.60;;
25123;SDS011;13104;51.030;4.686;2022-09-20T10:29:47;11.13;;;3.67;;
25123;SDS011;13104;51.030;4.686;2022-09-20T10:32:34;9.93;;;4.03;;
25123;SDS011;13104;51.030;4.686;2022-09-20T10:48:41;8.60;;;3.40;;
25123;SDS011;13104;51.030;4.686;2022-09-20T10:56:58;9.35;;;3.00;;
25123;SDS011;13104;51.030;4.686;2022-09-20T11:04:18;10.93;;;2.63;;
25123;SDS011;13104;51.030;4.686;2022-09-20T11:06:48;7.35;;;2.53;;
25123;SDS011;13104;51.030;4.686;2022-09-20T11:09:18;8.38;;;2.97;;
25123;SDS011;13104;51.030;4.686;2022-09-20T11:11:46;6.78;;;2.25;;
25123;SDS011;13104;51.030;4.686;2022-09-20T11:14:19;9.20;;;2.72;;
25123;SDS011;13104;51.030;4.686;2022-09-20T11:16:54;8.32;;;2.72;;
25123;SDS011;13104;51.030;4.686;2022-09-20T11:22:05;12.63;;;2.25;;
25123;SDS011;13104;51.030;4.686;2022-09-20T11:24:34;7.43;;;1.85;;
25123;SDS011;13104;51.030;4.686;2022-09-20T11:27:15;7.78;;;1.95;;
25123;SDS011;13104;51.030;4.686;2022-09-20T11:29:44;6.97;;;2.20;;
25123;SDS011;13104;51.030;4.686;2022-09-20T11:37:19;9.90;;;1.63;;
25123;SDS011;13104;51.030;4.686;2022-09-20T11:39:52;8.75;;;1.60;;
25123;SDS011;13104;51.030;4.686;2022-09-20T11:42:19;10.48;;;1.77;;
25123;SDS011;13104;51.030;4.686;2022-09-20T11:44:47;5.13;;;1.80;;
25123;SDS011;13104;51.030;4.686;2022-09-20T11:47:16;5.85;;;1.40;;
25123;SDS011;13104;51.030;4.686;2022-09-20T11:49:48;5.50;;;1.77;;
25123;SDS011;13104;51.030;4.686;2022-09-20T11:57:23;8.50;;;1.52;;
25123;SDS011;13104;51.030;4.686;2022-09-20T11:59:58;15.23;;;2.00;;
25123;SDS011;13104;51.030;4.686;2022-09-20T12:02:47;5.30;;;1.52;;
25123;SDS011;13104;51.030;4.686;2022-09-20T12:05:29;9.70;;;2.00;;
25123;SDS011;13104;51.030;4.686;2022-09-20T12:07:57;6.85;;;1.73;;
25123;SDS011;13104;51.030;4.686;2022-09-20T12:10:25;10.10;;;2.20;;
25123;SDS011;13104;51.030;4.686;2022-09-20T12:13:02;9.57;;;2.10;;
25123;SDS011;13104;51.030;4.686;2022-09-20T12:15:31;7.40;;;1.80;;
25123;SDS011;13104;51.030;4.686;2022-09-20T12:26:01;13.75;;;2.00;;
25123;SDS011;13104;51.030;4.686;2022-09-20T12:28:35;6.07;;;1.17;;
25123;SDS011;13104;51.030;4.686;2022-09-20T12:33:56;8.65;;;1.20;;
25123;SDS011;13104;51.030;4.686;2022-09-20T12:36:23;6.97;;;1.42;;
25123;SDS011;13104;51.030;4.686;2022-09-20T12:38:54;4.10;;;1.10;;
25123;SDS011;13104;51.030;4.686;2022-09-20T12:41:21;5.20;;;1.25;;
25123;SDS011;13104;51.030;4.686;2022-09-20T12:46:21;5.03;;;1.13;;
25123;SDS011;13104;51.030;4.686;2022-09-20T12:48:47;11.90;;;1.38;;
25123;SDS011;13104;51.030;4.686;2022-09-20T12:54:05;5.50;;;1.52;;
25123;SDS011;13104;51.030;4.686;2022-09-20T12:56:36;3.85;;;1.15;;
25123;SDS011;13104;51.030;4.686;2022-09-20T12:59:03;8.68;;;1.50;;
25123;SDS011;13104;51.030;4.686;2022-09-20T13:01:34;6.82;;;1.10;;
25123;SDS011;13104;51.030;4.686;2022-09-20T13:07:24;6.93;;;1.00;;
25123;SDS011;13104;51.030;4.686;2022-09-20T13:09:32;9.45;;;1.67;;
25123;SDS011;13104;51.030;4.686;2022-09-20T13:11:59;6.30;;;1.08;;
25123;SDS011;13104;51.030;4.686;2022-09-20T13:14:30;8.50;;;1.33;;
25123;SDS011;13104;51.030;4.686;2022-09-20T13:17:05;4.38;;;1.20;;
25123;SDS011;13104;51.030;4.686;2022-09-20T13:24:48;8.07;;;1.63;;
25123;SDS011;13104;51.030;4.686;2022-09-20T13:27:18;6.72;;;1.60;;
25123;SDS011;13104;51.030;4.686;2022-09-20T13:29:46;6.13;;;1.67;;
25123;SDS011;13104;51.030;4.686;2022-09-20T13:37:56;7.25;;;2.10;;
25123;SDS011;13104;51.030;4.686;2022-09-20T13:42:50;3.45;;;1.65;;
25123;SDS011;13104;51.030;4.686;2022-09-20T13:45:16;8.27;;;2.40;;
25123;SDS011;13104;51.030;4.686;2022-09-20T13:47:47;7.30;;;2.63;;
25123;SDS011;13104;51.030;4.686;2022-09-20T13:50:19;11.23;;;2.75;;
25123;SDS011;13104;51.030;4.686;2022-09-20T13:52:49;7.70;;;2.65;;
25123;SDS011;13104;51.030;4.686;2022-09-20T13:57:52;8.43;;;2.40;;
25123;SDS011;13104;51.030;4.686;2022-09-20T14:00:22;7.47;;;2.45;;
25123;SDS011;13104;51.030;4.686;2022-09-20T14:02:49;7.95;;;2.03;;
25123;SDS011;13104;51.030;4.686;2022-09-20T14:05:18;7.70;;;1.80;;
25123;SDS011;13104;51.030;4.686;2022-09-20T14:07:45;8.63;;;1.73;;
25123;SDS011;13104;51.030;4.686;2022-09-20T14:10:32;7.53;;;1.60;;
25123;SDS011;13104;51.030;4.686;2022-09-20T14:12:59;9.40;;;1.40;;
25123;SDS011;13104;51.030;4.686;2022-09-20T14:15:28;8.27;;;1.40;;
25123;SDS011;13104;51.030;4.686;2022-09-20T14:17:55;6.80;;;1.40;;
25123;SDS011;13104;51.030;4.686;2022-09-20T14:20:22;5.22;;;1.27;;
25123;SDS011;13104;51.030;4.686;2022-09-20T14:22:50;7.30;;;1.20;;
25123;SDS011;13104;51.030;4.686;2022-09-20T14:25:18;4.20;;;1.10;;
25123;SDS011;13104;51.030;4.686;2022-09-20T14:27:45;5.90;;;1.30;;
25123;SDS011;13104;51.030;4.686;2022-09-20T14:33:00;4.47;;;1.08;;
25123;SDS011;13104;51.030;4.686;2022-09-20T14:35:28;8.88;;;1.50;;
25123;SDS011;13104;51.030;4.686;2022-09-20T14:37:58;5.53;;;1.10;;
25123;SDS011;13104;51.030;4.686;2022-09-20T14:40:29;7.63;;;1.15;;
25123;SDS011;13104;51.030;4.686;2022-09-20T14:43:01;5.38;;;1.35;;
25123;SDS011;13104;51.030;4.686;2022-09-20T14:45:29;6.25;;;1.23;;
25123;SDS011;13104;51.030;4.686;2022-09-20T14:50:41;11.20;;;1.75;;
25123;SDS011;13104;51.030;4.686;2022-09-20T14:55:37;5.60;;;1.10;;
25123;SDS011;13104;51.030;4.686;2022-09-20T14:58:11;7.80;;;1.20;;
25123;SDS011;13104;51.030;4.686;2022-09-20T15:00:48;7.18;;;1.38;;
25123;SDS011;13104;51.030;4.686;2022-09-20T15:03:15;7.20;;;1.33;;
25123;SDS011;13104;51.030;4.686;2022-09-20T15:05:42;7.75;;;1.20;;
25123;SDS011;13104;51.030;4.686;2022-09-20T15:08:10;9.23;;;1.30;;
25123;SDS011;13104;51.030;4.686;2022-09-20T15:10:39;6.15;;;1.23;;
25123;SDS011;13104;51.030;4.686;2022-09-20T15:13:08;7.47;;;1.38;;
25123;SDS011;13104;51.030;4.686;2022-09-20T15:15:34;6.80;;;1.27;;
25123;SDS011;13104;51.030;4.686;2022-09-20T15:18:00;14.27;;;5.88;;
25123;SDS011;13104;51.030;4.686;2022-09-20T15:20:27;11.45;;;2.92;;
25123;SDS011;13104;51.030;4.686;2022-09-20T15:22:53;13.35;;;3.53;;
25123;SDS011;13104;51.030;4.686;2022-09-20T15:25:21;7.50;;;1.55;;
25123;SDS011;13104;51.030;4.686;2022-09-20T15:27:48;5.60;;;1.15;;
25123;SDS011;13104;51.030;4.686;2022-09-20T15:30:17;6.00;;;1.40;;
25123;SDS011;13104;51.030;4.686;2022-09-20T15:32:45;10.73;;;1.73;;
25123;SDS011;13104;51.030;4.686;2022-09-20T15:35:11;4.95;;;1.58;;
25123;SDS011;13104;51.030;4.686;2022-09-20T15:37:38;4.13;;;1.30;;
25123;SDS011;13104;51.030;4.686;2022-09-20T15:40:04;9.10;;;1.35;;
25123;SDS011;13104;51.030;4.686;2022-09-20T15:42:32;8.20;;;1.60;;
25123;SDS011;13104;51.030;4.686;2022-09-20T15:45:02;5.78;;;1.73;;
25123;SDS011;13104;51.030;4.686;2022-09-20T15:47:28;6.85;;;1.42;;
25123;SDS011;13104;51.030;4.686;2022-09-20T15:49:55;9.45;;;2.03;;
25123;SDS011;13104;51.030;4.686;2022-09-20T15:52:23;6.13;;;1.55;;
25123;SDS011;13104;51.030;4.686;2022-09-20T15:54:49;8.48;;;1.75;;
25123;SDS011;13104;51.030;4.686;2022-09-20T15:57:16;7.43;;;1.70;;
25123;SDS011;13104;51.030;4.686;2022-09-20T15:59:43;10.65;;;1.60;;
25123;SDS011;13104;51.030;4.686;2022-09-20T16:02:09;6.38;;;1.50;;
25123;SDS011;13104;51.030;4.686;2022-09-20T16:04:36;9.32;;;1.65;;
25123;SDS011;13104;51.030;4.686;2022-09-20T16:07:02;4.85;;;1.50;;
25123;SDS011;13104;51.030;4.686;2022-09-20T16:09:29;5.72;;;1.50;;
25123;SDS011;13104;51.030;4.686;2022-09-20T16:11:55;6.18;;;1.50;;
25123;SDS011;13104;51.030;4.686;2022-09-20T16:14:24;5.65;;;1.50;;
25123;SDS011;13104;51.030;4.686;2022-09-20T16:16:50;6.78;;;1.45;;
25123;SDS011;13104;51.030;4.686;2022-09-20T16:19:16;6.43;;;1.60;;
25123;SDS011;13104;51.030;4.686;2022-09-20T16:21:54;8.27;;;1.90;;
25123;SDS011;13104;51.030;4.686;2022-09-20T16:24:21;8.95;;;2.20;;
25123;SDS011;13104;51.030;4.686;2022-09-20T16:26:48;6.10;;;1.63;;
25123;SDS011;13104;51.030;4.686;2022-09-20T16:29:14;11.57;;;2.03;;
25123;SDS011;13104;51.030;4.686;2022-09-20T16:31:45;10.65;;;1.85;;
25123;SDS011;13104;51.030;4.686;2022-09-20T16:36:51;10.23;;;2.40;;
25123;SDS011;13104;51.030;4.686;2022-09-20T16:39:18;9.65;;;2.03;;
25123;SDS011;13104;51.030;4.686;2022-09-20T16:41:46;9.18;;;3.13;;
25123;SDS011;13104;51.030;4.686;2022-09-20T16:44:13;11.90;;;2.40;;
25123;SDS011;13104;51.030;4.686;2022-09-20T16:46:39;5.70;;;1.90;;
25123;SDS011;13104;51.030;4.686;2022-09-20T16:49:06;6.00;;;2.08;;
25123;SDS011;13104;51.030;4.686;2022-09-20T16:51:36;10.57;;;2.53;;
25123;SDS011;13104;51.030;4.686;2022-09-20T16:54:04;8.80;;;2.30;;
25123;SDS011;13104;51.030;4.686;2022-09-20T16:56:31;4.68;;;2.08;;
25123;SDS011;13104;51.030;4.686;2022-09-20T16:58:58;5.60;;;2.20;;
25123;SDS011;13104;51.030;4.686;2022-09-20T17:01:25;4.43;;;1.75;;
25123;SDS011;13104;51.030;4.686;2022-09-20T17:03:51;4.55;;;1.95;;
25123;SDS011;13104;51.030;4.686;2022-09-20T17:06:17;8.20;;;2.20;;
25123;SDS011;13104;51.030;4.686;2022-09-20T17:08:43;4.03;;;1.88;;
25123;SDS011;13104;51.030;4.686;2022-09-20T17:11:17;9.98;;;2.50;;
25123;SDS011;13104;51.030;4.686;2022-09-20T17:16:15;18.85;;;3.65;;
25123;SDS011;13104;51.030;4.686;2022-09-20T17:18:41;10.10;;;3.97;;
25123;SDS011;13104;51.030;4.686;2022-09-20T17:21:09;6.97;;;3.47;;
25123;SDS011;13104;51.030;4.686;2022-09-20T17:23:37;14.40;;;5.20;;
25123;SDS011;13104;51.030;4.686;2022-09-20T17:26:06;13.10;;;5.68;;
25123;SDS011;13104;51.030;4.686;2022-09-20T17:28:37;13.18;;;4.82;;
25123;SDS011;13104;51.030;4.686;2022-09-20T17:31:04;10.20;;;4.03;;
25123;SDS011;13104;51.030;4.686;2022-09-20T17:33:31;12.27;;;4.28;;
25123;SDS011;13104;51.030;4.686;2022-09-20T17:35:58;14.00;;;7.20;;
25123;SDS011;13104;51.030;4.686;2022-09-20T17:38:25;17.92;;;6.70;;
25123;SDS011;13104;51.030;4.686;2022-09-20T17:41:09;15.20;;;4.57;;
25123;SDS011;13104;51.030;4.686;2022-09-20T17:43:35;13.38;;;4.03;;
25123;SDS011;13104;51.030;4.686;2022-09-20T17:46:06;17.88;;;4.10;;
25123;SDS011;13104;51.030;4.686;2022-09-20T17:48:32;17.95;;;4.13;;
25123;SDS011;13104;51.030;4.686;2022-09-20T17:50:59;13.98;;;4.82;;
25123;SDS011;13104;51.030;4.686;2022-09-20T17:53:26;17.40;;;4.60;;
25123;SDS011;13104;51.030;4.686;2022-09-20T17:55:53;14.35;;;4.07;;
25123;SDS011;13104;51.030;4.686;2022-09-20T17:58:19;11.27;;;4.45;;
25123;SDS011;13104;51.030;4.686;2022-09-20T18:00:45;17.67;;;4.53;;
25123;SDS011;13104;51.030;4.686;2022-09-20T18:03:11;17.75;;;4.07;;
25123;SDS011;13104;51.030;4.686;2022-09-20T18:05:39;21.83;;;4.65;;
25123;SDS011;13104;51.030;4.686;2022-09-20T18:08:05;16.30;;;4.60;;
25123;SDS011;13104;51.030;4.686;2022-09-20T18:10:31;11.60;;;3.95;;
25123;SDS011;13104;51.030;4.686;2022-09-20T18:12:58;14.20;;;4.00;;
25123;SDS011;13104;51.030;4.686;2022-09-20T18:15:25;12.63;;;4.03;;
25123;SDS011;13104;51.030;4.686;2022-09-20T18:17:51;19.88;;;4.65;;
25123;SDS011;13104;51.030;4.686;2022-09-20T18:20:18;14.23;;;5.20;;
25123;SDS011;13104;51.030;4.686;2022-09-20T18:22:47;14.18;;;5.75;;
25123;SDS011;13104;51.030;4.686;2022-09-20T18:25:14;19.73;;;7.50;;
25123;SDS011;13104;51.030;4.686;2022-09-20T18:27:40;17.15;;;6.97;;
25123;SDS011;13104;51.030;4.686;2022-09-20T18:30:07;16.65;;;5.05;;
25123;SDS011;13104;51.030;4.686;2022-09-20T18:32:33;13.52;;;5.03;;
25123;SDS011;13104;51.030;4.686;2022-09-20T18:35:00;10.10;;;5.40;;
25123;SDS011;13104;51.030;4.686;2022-09-20T18:37:26;11.25;;;5.55;;
25123;SDS011;13104;51.030;4.686;2022-09-20T18:39:54;12.80;;;5.20;;
25123;SDS011;13104;51.030;4.686;2022-09-20T18:42:20;11.68;;;4.97;;
25123;SDS011;13104;51.030;4.686;2022-09-20T18:44:46;11.15;;;5.00;;
25123;SDS011;13104;51.030;4.686;2022-09-20T18:47:13;9.18;;;4.57;;
25123;SDS011;13104;51.030;4.686;2022-09-20T18:49:39;12.43;;;5.90;;
25123;SDS011;13104;51.030;4.686;2022-09-20T18:52:05;15.45;;;6.15;;
25123;SDS011;13104;51.030;4.686;2022-09-20T18:54:34;12.13;;;5.50;;
25123;SDS011;13104;51.030;4.686;2022-09-20T18:57:01;14.38;;;5.82;;
25123;SDS011;13104;51.030;4.686;2022-09-20T18:59:27;10.73;;;6.22;;
25123;SDS011;13104;51.030;4.686;2022-09-20T19:01:58;11.60;;;5.65;;
25123;SDS011;13104;51.030;4.686;2022-09-20T19:12:14;13.18;;;4.68;;
25123;SDS011;13104;51.030;4.686;2022-09-20T19:14:52;10.27;;;4.03;;
25123;SDS011;13104;51.030;4.686;2022-09-20T19:17:22;16.17;;;4.15;;
25123;SDS011;13104;51.030;4.686;2022-09-20T19:19:53;10.32;;;3.83;;
25123;SDS011;13104;51.030;4.686;2022-09-20T19:23:28;9.48;;;4.10;;
25123;SDS011;13104;51.030;4.686;2022-09-20T19:27:44;10.30;;;3.80;;
25123;SDS011;13104;51.030;4.686;2022-09-20T19:30:13;12.57;;;4.20;;
25123;SDS011;13104;51.030;4.686;2022-09-20T19:32:40;14.10;;;4.80;;
25123;SDS011;13104;51.030;4.686;2022-09-20T19:35:27;12.00;;;4.38;;
25123;SDS011;13104;51.030;4.686;2022-09-20T19:38:02;9.63;;;4.55;;
25123;SDS011;13104;51.030;4.686;2022-09-20T19:51:39;10.63;;;4.93;;
25123;SDS011;13104;51.030;4.686;2022-09-20T19:54:08;12.48;;;5.18;;
25123;SDS011;13104;51.030;4.686;2022-09-20T19:56:47;10.70;;;5.57;;
25123;SDS011;13104;51.030;4.686;2022-09-20T19:59:17;8.32;;;5.35;;
25123;SDS011;13104;51.030;4.686;2022-09-20T20:01:43;9.88;;;5.57;;
25123;SDS011;13104;51.030;4.686;2022-09-20T20:04:09;9.05;;;5.28;;
25123;SDS011;13104;51.030;4.686;2022-09-20T20:09:12;12.32;;;4.60;;
25123;SDS011;13104;51.030;4.686;2022-09-20T20:11:45;14.57;;;5.10;;
25123;SDS011;13104;51.030;4.686;2022-09-20T20:17:05;9.38;;;5.40;;
25123;SDS011;13104;51.030;4.686;2022-09-20T20:24:53;11.45;;;6.40;;
25123;SDS011;13104;51.030;4.686;2022-09-20T20:27:20;11.93;;;6.63;;
25123;SDS011;13104;51.030;4.686;2022-09-20T20:29:47;9.82;;;6.75;;